sensor_id;sensor_type;location;lat;lon;timestamp;P1;durP1;ratioP1;P2;durP2;ratioP2
55114;SDS011;41010;53.252;5.786;2023-04-24T00:00:48;5.18;;;3.00;;
55114;SDS011;41010;53.252;5.786;2023-04-24T00:03:16;4.13;;;2.60;;
55114;SDS011;41010;53.252;5.786;2023-04-24T00:05:46;3.72;;;2.88;;
55114;SDS011;41010;53.252;5.786;2023-04-24T00:08:14;4.47;;;2.40;;
55114;SDS011;41010;53.252;5.786;2023-04-24T00:10:42;3.42;;;2.50;;
55114;SDS011;41010;53.252;5.786;2023-04-24T00:13:09;5.40;;;2.65;;
55114;SDS011;41010;53.252;5.786;2023-04-24T00:15:38;3.53;;;2.60;;
55114;SDS011;41010;53.252;5.786;2023-04-24T00:18:05;4.00;;;2.20;;
55114;SDS011;41010;53.252;5.786;2023-04-24T00:20:32;3.50;;;2.00;;
55114;SDS011;41010;53.252;5.786;2023-04-24T00:23:00;4.55;;;2.30;;
55114;SDS011;41010;53.252;5.786;2023-04-24T00:25:27;2.92;;;2.10;;
55114;SDS011;41010;53.252;5.786;2023-04-24T00:27:55;3.75;;;2.40;;
55114;SDS011;41010;53.252;5.786;2023-04-24T00:30:22;4.18;;;2.63;;
55114;SDS011;41010;53.252;5.786;2023-04-24T00:32:50;3.80;;;2.63;;
55114;SDS011;41010;53.252;5.786;2023-04-24T00:35:18;3.72;;;2.42;;
55114;SDS011;41010;53.252;5.786;2023-04-24T00:37:45;4.90;;;2.70;;
55114;SDS011;41010;53.252;5.786;2023-04-24T00:40:13;4.45;;;2.75;;
55114;SDS011;41010;53.252;5.786;2023-04-24T00:42:40;3.90;;;2.80;;
55114;SDS011;41010;53.252;5.786;2023-04-24T00:45:08;5.78;;;2.80;;
55114;SDS011;41010;53.252;5.786;2023-04-24T00:47:35;3.17;;;2.20;;
55114;SDS011;41010;53.252;5.786;2023-04-24T00:50:05;4.05;;;2.90;;
55114;SDS011;41010;53.252;5.786;2023-04-24T00:52:33;4.35;;;2.72;;
55114;SDS011;41010;53.252;5.786;2023-04-24T00:55:01;3.22;;;2.63;;
55114;SDS011;41010;53.252;5.786;2023-04-24T00:57:28;5.35;;;2.78;;
55114;SDS011;41010;53.252;5.786;2023-04-24T00:59:55;3.35;;;2.38;;
55114;SDS011;41010;53.252;5.786;2023-04-24T01:02:22;4.78;;;2.80;;
55114;SDS011;41010;53.252;5.786;2023-04-24T01:04:50;3.80;;;2.78;;
55114;SDS011;41010;53.252;5.786;2023-04-24T01:07:20;5.40;;;3.10;;
55114;SDS011;41010;53.252;5.786;2023-04-24T01:09:47;4.53;;;2.72;;
55114;SDS011;41010;53.252;5.786;2023-04-24T01:12:16;3.92;;;2.83;;
55114;SDS011;41010;53.252;5.786;2023-04-24T01:14:43;3.67;;;2.50;;
55114;SDS011;41010;53.252;5.786;2023-04-24T01:17:11;6.03;;;2.75;;
55114;SDS011;41010;53.252;5.786;2023-04-24T01:19:38;4.45;;;2.85;;
55114;SDS011;41010;53.252;5.786;2023-04-24T01:22:11;5.30;;;2.65;;
55114;SDS011;41010;53.252;5.786;2023-04-24T01:24:39;3.70;;;2.38;;
55114;SDS011;41010;53.252;5.786;2023-04-24T01:27:07;4.43;;;2.10;;
55114;SDS011;41010;53.252;5.786;2023-04-24T01:29:34;4.65;;;2.35;;
55114;SDS011;41010;53.252;5.786;2023-04-24T01:32:02;4.00;;;2.45;;
55114;SDS011;41010;53.252;5.786;2023-04-24T01:34:30;3.08;;;2.30;;
55114;SDS011;41010;53.252;5.786;2023-04-24T01:36:57;6.80;;;2.40;;
55114;SDS011;41010;53.252;5.786;2023-04-24T01:39:26;4.10;;;2.40;;
55114;SDS011;41010;53.252;5.786;2023-04-24T01:41:53;7.90;;;3.25;;
55114;SDS011;41010;53.252;5.786;2023-04-24T01:44:21;4.18;;;2.78;;
55114;SDS011;41010;53.252;5.786;2023-04-24T01:46:48;3.17;;;2.50;;
55114;SDS011;41010;53.252;5.786;2023-04-24T01:49:15;3.63;;;2.70;;
55114;SDS011;41010;53.252;5.786;2023-04-24T01:51:43;6.32;;;2.92;;
55114;SDS011;41010;53.252;5.786;2023-04-24T01:54:10;4.32;;;3.28;;
55114;SDS011;41010;53.252;5.786;2023-04-24T01:56:39;5.70;;;3.88;;
55114;SDS011;41010;53.252;5.786;2023-04-24T01:59:07;4.05;;;3.22;;
55114;SDS011;41010;53.252;5.786;2023-04-24T02:01:36;4.60;;;3.50;;
55114;SDS011;41010;53.252;5.786;2023-04-24T02:04:03;4.25;;;3.30;;
55114;SDS011;41010;53.252;5.786;2023-04-24T02:06:31;4.85;;;3.58;;
55114;SDS011;41010;53.252;5.786;2023-04-24T02:08:58;6.05;;;4.00;;
55114;SDS011;41010;53.252;5.786;2023-04-24T02:11:26;4.78;;;3.38;;
55114;SDS011;41010;53.252;5.786;2023-04-24T02:13:54;4.72;;;2.92;;
55114;SDS011;41010;53.252;5.786;2023-04-24T02:16:21;6.53;;;3.88;;
55114;SDS011;41010;53.252;5.786;2023-04-24T02:18:49;7.07;;;4.78;;
55114;SDS011;41010;53.252;5.786;2023-04-24T02:21:16;5.18;;;3.60;;
55114;SDS011;41010;53.252;5.786;2023-04-24T02:23:43;3.95;;;2.85;;
55114;SDS011;41010;53.252;5.786;2023-04-24T02:26:11;3.50;;;2.08;;
55114;SDS011;41010;53.252;5.786;2023-04-24T02:28:38;2.10;;;1.70;;
55114;SDS011;41010;53.252;5.786;2023-04-24T02:31:06;1.70;;;1.30;;
55114;SDS011;41010;53.252;5.786;2023-04-24T02:33:34;3.08;;;1.40;;
55114;SDS011;41010;53.252;5.786;2023-04-24T02:36:01;4.90;;;1.60;;
55114;SDS011;41010;53.252;5.786;2023-04-24T02:38:28;2.50;;;1.58;;
55114;SDS011;41010;53.252;5.786;2023-04-24T02:40:56;2.30;;;1.33;;
55114;SDS011;41010;53.252;5.786;2023-04-24T02:43:23;2.53;;;1.20;;
55114;SDS011;41010;53.252;5.786;2023-04-24T02:45:50;3.22;;;1.20;;
55114;SDS011;41010;53.252;5.786;2023-04-24T02:48:19;3.40;;;0.80;;
55114;SDS011;41010;53.252;5.786;2023-04-24T02:50:46;1.10;;;0.50;;
55114;SDS011;41010;53.252;5.786;2023-04-24T02:53:15;0.80;;;0.60;;
55114;SDS011;41010;53.252;5.786;2023-04-24T02:55:42;1.15;;;0.60;;
55114;SDS011;41010;53.252;5.786;2023-04-24T02:58:11;1.02;;;0.52;;
55114;SDS011;41010;53.252;5.786;2023-04-24T03:00:38;2.60;;;0.75;;
55114;SDS011;41010;53.252;5.786;2023-04-24T03:03:06;1.67;;;0.55;;
55114;SDS011;41010;53.252;5.786;2023-04-24T03:05:34;1.40;;;0.77;;
55114;SDS011;41010;53.252;5.786;2023-04-24T03:08:02;1.50;;;0.65;;
55114;SDS011;41010;53.252;5.786;2023-04-24T03:10:29;2.13;;;0.60;;
55114;SDS011;41010;53.252;5.786;2023-04-24T03:12:57;0.73;;;0.60;;
55114;SDS011;41010;53.252;5.786;2023-04-24T03:15:24;1.35;;;0.60;;
55114;SDS011;41010;53.252;5.786;2023-04-24T03:17:51;1.70;;;0.90;;
55114;SDS011;41010;53.252;5.786;2023-04-24T03:20:19;0.90;;;0.63;;
55114;SDS011;41010;53.252;5.786;2023-04-24T03:22:48;2.00;;;0.70;;
55114;SDS011;41010;53.252;5.786;2023-04-24T03:25:15;1.10;;;0.70;;
55114;SDS011;41010;53.252;5.786;2023-04-24T03:27:42;1.70;;;1.00;;
55114;SDS011;41010;53.252;5.786;2023-04-24T03:30:10;2.28;;;1.00;;
55114;SDS011;41010;53.252;5.786;2023-04-24T03:32:37;3.28;;;1.23;;
55114;SDS011;41010;53.252;5.786;2023-04-24T03:35:05;2.00;;;1.35;;
55114;SDS011;41010;53.252;5.786;2023-04-24T03:37:33;3.03;;;1.80;;
55114;SDS011;41010;53.252;5.786;2023-04-24T03:40:02;2.95;;;1.70;;
55114;SDS011;41010;53.252;5.786;2023-04-24T03:42:31;2.85;;;1.50;;
55114;SDS011;41010;53.252;5.786;2023-04-24T03:44:58;1.58;;;1.15;;
55114;SDS011;41010;53.252;5.786;2023-04-24T03:47:25;2.10;;;0.90;;
55114;SDS011;41010;53.252;5.786;2023-04-24T03:49:52;2.58;;;1.02;;
55114;SDS011;41010;53.252;5.786;2023-04-24T03:52:20;1.55;;;0.70;;
55114;SDS011;41010;53.252;5.786;2023-04-24T03:54:48;1.35;;;0.90;;
55114;SDS011;41010;53.252;5.786;2023-04-24T03:57:16;1.92;;;0.80;;
55114;SDS011;41010;53.252;5.786;2023-04-24T03:59:44;1.38;;;0.70;;
55114;SDS011;41010;53.252;5.786;2023-04-24T04:02:11;1.45;;;0.63;;
55114;SDS011;41010;53.252;5.786;2023-04-24T04:04:38;1.92;;;0.93;;
55114;SDS011;41010;53.252;5.786;2023-04-24T04:07:06;2.33;;;1.30;;
55114;SDS011;41010;53.252;5.786;2023-04-24T04:09:33;2.03;;;1.42;;
55114;SDS011;41010;53.252;5.786;2023-04-24T04:12:01;3.05;;;1.90;;
55114;SDS011;41010;53.252;5.786;2023-04-24T04:14:29;4.00;;;2.38;;
55114;SDS011;41010;53.252;5.786;2023-04-24T04:16:56;7.78;;;2.58;;
55114;SDS011;41010;53.252;5.786;2023-04-24T04:19:24;4.32;;;2.80;;
55114;SDS011;41010;53.252;5.786;2023-04-24T04:21:51;4.45;;;2.30;;
55114;SDS011;41010;53.252;5.786;2023-04-24T04:24:21;4.82;;;2.22;;
55114;SDS011;41010;53.252;5.786;2023-04-24T04:26:49;3.03;;;1.83;;
55114;SDS011;41010;53.252;5.786;2023-04-24T04:29:17;2.33;;;1.40;;
55114;SDS011;41010;53.252;5.786;2023-04-24T04:31:46;3.13;;;1.30;;
55114;SDS011;41010;53.252;5.786;2023-04-24T04:34:13;4.90;;;1.27;;
55114;SDS011;41010;53.252;5.786;2023-04-24T04:36:40;4.75;;;2.13;;
55114;SDS011;41010;53.252;5.786;2023-04-24T04:39:08;6.07;;;2.53;;
55114;SDS011;41010;53.252;5.786;2023-04-24T04:41:36;4.28;;;3.03;;
55114;SDS011;41010;53.252;5.786;2023-04-24T04:44:05;4.95;;;3.58;;
55114;SDS011;41010;53.252;5.786;2023-04-24T04:46:33;5.65;;;4.20;;
55114;SDS011;41010;53.252;5.786;2023-04-24T04:49:03;6.82;;;4.28;;
55114;SDS011;41010;53.252;5.786;2023-04-24T04:51:31;7.43;;;4.57;;
55114;SDS011;41010;53.252;5.786;2023-04-24T04:53:58;7.10;;;4.18;;
55114;SDS011;41010;53.252;5.786;2023-04-24T04:56:25;8.25;;;4.07;;
55114;SDS011;41010;53.252;5.786;2023-04-24T04:58:53;9.32;;;4.25;;
55114;SDS011;41010;53.252;5.786;2023-04-24T05:01:20;9.38;;;4.45;;
55114;SDS011;41010;53.252;5.786;2023-04-24T05:03:48;7.75;;;4.13;;
55114;SDS011;41010;53.252;5.786;2023-04-24T05:06:17;6.55;;;3.05;;
55114;SDS011;41010;53.252;5.786;2023-04-24T05:08:44;5.97;;;2.22;;
55114;SDS011;41010;53.252;5.786;2023-04-24T05:11:11;3.50;;;2.10;;
55114;SDS011;41010;53.252;5.786;2023-04-24T05:13:38;1.70;;;1.10;;
55114;SDS011;41010;53.252;5.786;2023-04-24T05:16:08;2.58;;;1.40;;
55114;SDS011;41010;53.252;5.786;2023-04-24T05:18:35;2.20;;;1.70;;
55114;SDS011;41010;53.252;5.786;2023-04-24T05:21:02;4.40;;;1.65;;
55114;SDS011;41010;53.252;5.786;2023-04-24T05:23:31;2.88;;;1.40;;
55114;SDS011;41010;53.252;5.786;2023-04-24T05:25:58;3.83;;;1.88;;
55114;SDS011;41010;53.252;5.786;2023-04-24T05:28:25;2.40;;;1.20;;
55114;SDS011;41010;53.252;5.786;2023-04-24T05:30:53;5.55;;;2.55;;
55114;SDS011;41010;53.252;5.786;2023-04-24T05:33:21;5.15;;;3.03;;
55114;SDS011;41010;53.252;5.786;2023-04-24T05:35:48;2.78;;;1.80;;
55114;SDS011;41010;53.252;5.786;2023-04-24T05:38:16;3.10;;;1.90;;
55114;SDS011;41010;53.252;5.786;2023-04-24T05:40:46;4.70;;;1.75;;
55114;SDS011;41010;53.252;5.786;2023-04-24T05:43:13;3.33;;;1.63;;
55114;SDS011;41010;53.252;5.786;2023-04-24T05:45:41;2.92;;;1.40;;
55114;SDS011;41010;53.252;5.786;2023-04-24T05:48:08;3.42;;;1.00;;
55114;SDS011;41010;53.252;5.786;2023-04-24T05:50:35;1.85;;;0.90;;
55114;SDS011;41010;53.252;5.786;2023-04-24T05:53:03;4.07;;;0.90;;
55114;SDS011;41010;53.252;5.786;2023-04-24T05:55:32;1.88;;;0.95;;
55114;SDS011;41010;53.252;5.786;2023-04-24T05:58:01;1.92;;;1.20;;
55114;SDS011;41010;53.252;5.786;2023-04-24T06:00:28;1.67;;;1.00;;
55114;SDS011;41010;53.252;5.786;2023-04-24T06:02:55;1.42;;;1.00;;
55114;SDS011;41010;53.252;5.786;2023-04-24T06:05:22;3.05;;;1.13;;
55114;SDS011;41010;53.252;5.786;2023-04-24T06:07:50;2.53;;;0.90;;
55114;SDS011;41010;53.252;5.786;2023-04-24T06:10:17;2.05;;;0.85;;
55114;SDS011;41010;53.252;5.786;2023-04-24T06:12:45;2.95;;;0.90;;
55114;SDS011;41010;53.252;5.786;2023-04-24T06:15:13;4.40;;;1.00;;
55114;SDS011;41010;53.252;5.786;2023-04-24T06:17:41;2.00;;;1.40;;
55114;SDS011;41010;53.252;5.786;2023-04-24T06:20:08;3.13;;;1.60;;
55114;SDS011;41010;53.252;5.786;2023-04-24T06:22:36;3.80;;;1.80;;
55114;SDS011;41010;53.252;5.786;2023-04-24T06:25:05;3.15;;;1.92;;
55114;SDS011;41010;53.252;5.786;2023-04-24T06:27:32;7.38;;;2.50;;
55114;SDS011;41010;53.252;5.786;2023-04-24T06:30:00;7.63;;;3.60;;
55114;SDS011;41010;53.252;5.786;2023-04-24T06:32:29;11.70;;;5.55;;
55114;SDS011;41010;53.252;5.786;2023-04-24T06:34:56;8.85;;;4.60;;
55114;SDS011;41010;53.252;5.786;2023-04-24T06:37:24;9.43;;;4.97;;
55114;SDS011;41010;53.252;5.786;2023-04-24T06:39:51;10.98;;;5.55;;
55114;SDS011;41010;53.252;5.786;2023-04-24T06:42:18;14.60;;;6.18;;
55114;SDS011;41010;53.252;5.786;2023-04-24T06:44:47;10.40;;;5.75;;
55114;SDS011;41010;53.252;5.786;2023-04-24T06:47:14;12.80;;;5.70;;
55114;SDS011;41010;53.252;5.786;2023-04-24T06:49:43;9.82;;;5.05;;
55114;SDS011;41010;53.252;5.786;2023-04-24T06:52:10;12.57;;;5.07;;
55114;SDS011;41010;53.252;5.786;2023-04-24T06:54:37;11.27;;;4.30;;
55114;SDS011;41010;53.252;5.786;2023-04-24T06:57:04;7.63;;;3.47;;
55114;SDS011;41010;53.252;5.786;2023-04-24T06:59:32;9.52;;;4.43;;
55114;SDS011;41010;53.252;5.786;2023-04-24T07:01:59;9.35;;;4.97;;
55114;SDS011;41010;53.252;5.786;2023-04-24T07:04:27;14.20;;;5.72;;
55114;SDS011;41010;53.252;5.786;2023-04-24T07:06:55;9.70;;;5.88;;
55114;SDS011;41010;53.252;5.786;2023-04-24T07:09:23;12.55;;;6.00;;
55114;SDS011;41010;53.252;5.786;2023-04-24T07:11:51;11.77;;;5.07;;
55114;SDS011;41010;53.252;5.786;2023-04-24T07:14:18;12.18;;;5.97;;
55114;SDS011;41010;53.252;5.786;2023-04-24T07:16:46;12.45;;;6.15;;
55114;SDS011;41010;53.252;5.786;2023-04-24T07:19:13;9.00;;;5.85;;
55114;SDS011;41010;53.252;5.786;2023-04-24T07:21:40;13.15;;;6.45;;
55114;SDS011;41010;53.252;5.786;2023-04-24T07:24:09;13.70;;;5.85;;
55114;SDS011;41010;53.252;5.786;2023-04-24T07:26:38;11.90;;;5.43;;
55114;SDS011;41010;53.252;5.786;2023-04-24T07:29:05;10.48;;;5.13;;
55114;SDS011;41010;53.252;5.786;2023-04-24T07:31:33;9.65;;;4.80;;
55114;SDS011;41010;53.252;5.786;2023-04-24T07:34:00;6.85;;;4.10;;
55114;SDS011;41010;53.252;5.786;2023-04-24T07:36:27;6.00;;;3.28;;
55114;SDS011;41010;53.252;5.786;2023-04-24T07:38:55;4.88;;;3.15;;
55114;SDS011;41010;53.252;5.786;2023-04-24T07:41:24;5.13;;;2.80;;
55114;SDS011;41010;53.252;5.786;2023-04-24T07:43:52;5.85;;;3.08;;
55114;SDS011;41010;53.252;5.786;2023-04-24T07:46:20;4.90;;;2.65;;
55114;SDS011;41010;53.252;5.786;2023-04-24T07:48:48;6.63;;;2.85;;
55114;SDS011;41010;53.252;5.786;2023-04-24T07:51:15;4.60;;;2.75;;
55114;SDS011;41010;53.252;5.786;2023-04-24T07:53:43;8.50;;;2.60;;
55114;SDS011;41010;53.252;5.786;2023-04-24T07:56:10;5.60;;;3.25;;
55114;SDS011;41010;53.252;5.786;2023-04-24T07:58:39;8.05;;;2.58;;
55114;SDS011;41010;53.252;5.786;2023-04-24T08:01:06;5.72;;;2.22;;
55114;SDS011;41010;53.252;5.786;2023-04-24T08:03:33;6.65;;;2.70;;
55114;SDS011;41010;53.252;5.786;2023-04-24T08:06:01;5.15;;;2.45;;
55114;SDS011;41010;53.252;5.786;2023-04-24T08:08:28;4.60;;;2.50;;
55114;SDS011;41010;53.252;5.786;2023-04-24T08:10:55;6.38;;;2.63;;
55114;SDS011;41010;53.252;5.786;2023-04-24T08:13:22;6.78;;;2.53;;
55114;SDS011;41010;53.252;5.786;2023-04-24T08:15:51;4.65;;;2.67;;
55114;SDS011;41010;53.252;5.786;2023-04-24T08:18:18;7.10;;;3.00;;
55114;SDS011;41010;53.252;5.786;2023-04-24T08:20:46;6.30;;;2.38;;
55114;SDS011;41010;53.252;5.786;2023-04-24T08:23:13;3.63;;;1.80;;
55114;SDS011;41010;53.252;5.786;2023-04-24T08:25:41;5.97;;;2.60;;
55114;SDS011;41010;53.252;5.786;2023-04-24T08:28:08;9.23;;;2.65;;
55114;SDS011;41010;53.252;5.786;2023-04-24T08:30:36;8.45;;;2.60;;
55114;SDS011;41010;53.252;5.786;2023-04-24T08:33:05;4.65;;;1.90;;
55114;SDS011;41010;53.252;5.786;2023-04-24T08:35:32;4.15;;;1.70;;
55114;SDS011;41010;53.252;5.786;2023-04-24T08:37:59;7.03;;;1.70;;
55114;SDS011;41010;53.252;5.786;2023-04-24T08:40:27;7.88;;;2.10;;
55114;SDS011;41010;53.252;5.786;2023-04-24T08:42:55;4.93;;;1.88;;
55114;SDS011;41010;53.252;5.786;2023-04-24T08:45:22;6.93;;;1.73;;
55114;SDS011;41010;53.252;5.786;2023-04-24T08:47:52;3.65;;;1.40;;
55114;SDS011;41010;53.252;5.786;2023-04-24T08:50:21;3.67;;;1.20;;
55114;SDS011;41010;53.252;5.786;2023-04-24T08:52:49;4.78;;;1.27;;
55114;SDS011;41010;53.252;5.786;2023-04-24T08:55:18;3.35;;;1.33;;
55114;SDS011;41010;53.252;5.786;2023-04-24T08:57:49;3.47;;;1.10;;
55114;SDS011;41010;53.252;5.786;2023-04-24T09:00:18;1.58;;;1.05;;
55114;SDS011;41010;53.252;5.786;2023-04-24T09:02:45;4.10;;;1.38;;
55114;SDS011;41010;53.252;5.786;2023-04-24T09:05:14;5.57;;;1.52;;
55114;SDS011;41010;53.252;5.786;2023-04-24T09:07:44;6.13;;;1.17;;
55114;SDS011;41010;53.252;5.786;2023-04-24T09:10:12;9.15;;;1.60;;
55114;SDS011;41010;53.252;5.786;2023-04-24T09:12:40;5.88;;;1.50;;
55114;SDS011;41010;53.252;5.786;2023-04-24T09:15:08;4.45;;;1.60;;
55114;SDS011;41010;53.252;5.786;2023-04-24T09:17:36;4.85;;;1.35;;
55114;SDS011;41010;53.252;5.786;2023-04-24T09:20:03;8.00;;;1.20;;
55114;SDS011;41010;53.252;5.786;2023-04-24T09:22:31;3.30;;;0.80;;
55114;SDS011;41010;53.252;5.786;2023-04-24T09:25:03;2.72;;;0.93;;
55114;SDS011;41010;53.252;5.786;2023-04-24T09:27:31;4.20;;;1.08;;
55114;SDS011;41010;53.252;5.786;2023-04-24T09:29:59;2.78;;;1.10;;
55114;SDS011;41010;53.252;5.786;2023-04-24T09:32:26;5.32;;;0.93;;
55114;SDS011;41010;53.252;5.786;2023-04-24T09:35:10;3.53;;;1.00;;
55114;SDS011;41010;53.252;5.786;2023-04-24T09:37:39;2.95;;;1.00;;
55114;SDS011;41010;53.252;5.786;2023-04-24T09:40:11;4.90;;;1.10;;
55114;SDS011;41010;53.252;5.786;2023-04-24T09:42:39;3.95;;;1.10;;
55114;SDS011;41010;53.252;5.786;2023-04-24T09:45:09;3.03;;;0.65;;
55114;SDS011;41010;53.252;5.786;2023-04-24T09:47:37;5.93;;;1.48;;
55114;SDS011;41010;53.252;5.786;2023-04-24T09:50:14;4.68;;;0.90;;
55114;SDS011;41010;53.252;5.786;2023-04-24T09:52:42;3.40;;;0.70;;
55114;SDS011;41010;53.252;5.786;2023-04-24T09:55:16;3.03;;;0.90;;
55114;SDS011;41010;53.252;5.786;2023-04-24T09:57:47;6.82;;;1.02;;
55114;SDS011;41010;53.252;5.786;2023-04-24T10:00:17;2.65;;;0.80;;
55114;SDS011;41010;53.252;5.786;2023-04-24T10:02:49;4.53;;;0.80;;
55114;SDS011;41010;53.252;5.786;2023-04-24T10:05:17;3.38;;;0.98;;
55114;SDS011;41010;53.252;5.786;2023-04-24T10:07:44;2.40;;;0.60;;
55114;SDS011;41010;53.252;5.786;2023-04-24T10:10:12;1.95;;;0.65;;
55114;SDS011;41010;53.252;5.786;2023-04-24T10:12:40;3.03;;;0.63;;
55114;SDS011;41010;53.252;5.786;2023-04-24T10:15:10;5.20;;;0.85;;
55114;SDS011;41010;53.252;5.786;2023-04-24T10:17:39;2.70;;;0.63;;
55114;SDS011;41010;53.252;5.786;2023-04-24T10:20:07;3.28;;;0.70;;
55114;SDS011;41010;53.252;5.786;2023-04-24T10:22:35;2.88;;;0.70;;
55114;SDS011;41010;53.252;5.786;2023-04-24T10:25:03;3.05;;;0.80;;
55114;SDS011;41010;53.252;5.786;2023-04-24T10:27:31;1.92;;;0.85;;
55114;SDS011;41010;53.252;5.786;2023-04-24T10:30:00;8.30;;;0.90;;
55114;SDS011;41010;53.252;5.786;2023-04-24T10:32:28;7.30;;;0.95;;
55114;SDS011;41010;53.252;5.786;2023-04-24T10:34:56;2.10;;;0.60;;
55114;SDS011;41010;53.252;5.786;2023-04-24T10:37:23;2.58;;;0.70;;
55114;SDS011;41010;53.252;5.786;2023-04-24T10:39:52;2.33;;;0.47;;
55114;SDS011;41010;53.252;5.786;2023-04-24T10:42:19;3.42;;;0.60;;
55114;SDS011;41010;53.252;5.786;2023-04-24T10:44:48;3.00;;;0.63;;
55114;SDS011;41010;53.252;5.786;2023-04-24T10:47:16;3.20;;;0.57;;
55114;SDS011;41010;53.252;5.786;2023-04-24T10:49:43;5.32;;;0.88;;
55114;SDS011;41010;53.252;5.786;2023-04-24T10:52:11;1.63;;;0.47;;
55114;SDS011;41010;53.252;5.786;2023-04-24T10:54:41;4.03;;;0.80;;
55114;SDS011;41010;53.252;5.786;2023-04-24T10:57:27;5.47;;;0.70;;
55114;SDS011;41010;53.252;5.786;2023-04-24T11:02:41;2.63;;;0.60;;
55114;SDS011;41010;53.252;5.786;2023-04-24T11:10:27;4.45;;;0.82;;
55114;SDS011;41010;53.252;5.786;2023-04-24T11:12:54;3.72;;;1.80;;
55114;SDS011;41010;53.252;5.786;2023-04-24T11:15:21;1.90;;;1.05;;
55114;SDS011;41010;53.252;5.786;2023-04-24T11:17:50;2.47;;;0.60;;
55114;SDS011;41010;53.252;5.786;2023-04-24T11:20:22;2.25;;;0.68;;
55114;SDS011;41010;53.252;5.786;2023-04-24T11:22:52;2.42;;;0.63;;
55114;SDS011;41010;53.252;5.786;2023-04-24T11:25:20;3.55;;;0.75;;
55114;SDS011;41010;53.252;5.786;2023-04-24T11:27:48;4.22;;;0.60;;
55114;SDS011;41010;53.252;5.786;2023-04-24T11:30:17;2.20;;;0.40;;
55114;SDS011;41010;53.252;5.786;2023-04-24T11:32:47;2.80;;;0.55;;
55114;SDS011;41010;53.252;5.786;2023-04-24T11:35:19;1.83;;;0.50;;
55114;SDS011;41010;53.252;5.786;2023-04-24T11:37:50;4.72;;;0.70;;
55114;SDS011;41010;53.252;5.786;2023-04-24T11:40:17;3.78;;;0.65;;
55114;SDS011;41010;53.252;5.786;2023-04-24T11:42:46;2.70;;;0.70;;
55114;SDS011;41010;53.252;5.786;2023-04-24T11:45:14;2.28;;;0.70;;
55114;SDS011;41010;53.252;5.786;2023-04-24T11:47:41;3.08;;;0.45;;
55114;SDS011;41010;53.252;5.786;2023-04-24T11:50:10;4.15;;;0.70;;
55114;SDS011;41010;53.252;5.786;2023-04-24T11:52:39;4.72;;;0.70;;
55114;SDS011;41010;53.252;5.786;2023-04-24T11:55:08;1.80;;;0.68;;
55114;SDS011;41010;53.252;5.786;2023-04-24T11:57:35;2.20;;;0.40;;
55114;SDS011;41010;53.252;5.786;2023-04-24T12:00:03;4.00;;;0.90;;
55114;SDS011;41010;53.252;5.786;2023-04-24T12:02:31;3.25;;;0.70;;
55114;SDS011;41010;53.252;5.786;2023-04-24T12:04:58;1.85;;;0.60;;
55114;SDS011;41010;53.252;5.786;2023-04-24T12:07:25;2.58;;;0.50;;
55114;SDS011;41010;53.252;5.786;2023-04-24T12:09:57;2.15;;;0.40;;
55114;SDS011;41010;53.252;5.786;2023-04-24T12:12:26;1.75;;;0.40;;
55114;SDS011;41010;53.252;5.786;2023-04-24T12:14:54;2.97;;;0.60;;
55114;SDS011;41010;53.252;5.786;2023-04-24T12:17:25;3.10;;;0.60;;
55114;SDS011;41010;53.252;5.786;2023-04-24T12:19:56;1.65;;;0.30;;
55114;SDS011;41010;53.252;5.786;2023-04-24T12:22:24;0.85;;;0.30;;
55114;SDS011;41010;53.252;5.786;2023-04-24T12:24:59;1.20;;;0.40;;
55114;SDS011;41010;53.252;5.786;2023-04-24T12:27:29;2.72;;;0.47;;
55114;SDS011;41010;53.252;5.786;2023-04-24T12:29:57;1.75;;;0.30;;
55114;SDS011;41010;53.252;5.786;2023-04-24T12:32:25;2.25;;;0.30;;
55114;SDS011;41010;53.252;5.786;2023-04-24T12:34:53;1.35;;;0.32;;
55114;SDS011;41010;53.252;5.786;2023-04-24T12:37:20;1.75;;;0.40;;
55114;SDS011;41010;53.252;5.786;2023-04-24T12:40:05;0.55;;;0.28;;
55114;SDS011;41010;53.252;5.786;2023-04-24T12:42:33;1.45;;;0.30;;
55114;SDS011;41010;53.252;5.786;2023-04-24T12:45:02;2.92;;;0.43;;
55114;SDS011;41010;53.252;5.786;2023-04-24T12:47:30;2.05;;;0.30;;
55114;SDS011;41010;53.252;5.786;2023-04-24T12:49:58;3.13;;;0.50;;
55114;SDS011;41010;53.252;5.786;2023-04-24T12:52:28;2.92;;;0.45;;
55114;SDS011;41010;53.252;5.786;2023-04-24T12:54:56;1.60;;;0.50;;
55114;SDS011;41010;53.252;5.786;2023-04-24T12:57:25;1.65;;;0.57;;
55114;SDS011;41010;53.252;5.786;2023-04-24T12:59:53;3.55;;;0.60;;
55114;SDS011;41010;53.252;5.786;2023-04-24T13:02:24;3.28;;;0.80;;
55114;SDS011;41010;53.252;5.786;2023-04-24T13:04:52;4.35;;;0.90;;
55114;SDS011;41010;53.252;5.786;2023-04-24T13:07:20;6.22;;;0.80;;
55114;SDS011;41010;53.252;5.786;2023-04-24T13:09:47;2.50;;;0.80;;
55114;SDS011;41010;53.252;5.786;2023-04-24T13:12:15;5.47;;;0.70;;
55114;SDS011;41010;53.252;5.786;2023-04-24T13:14:44;5.70;;;0.95;;
55114;SDS011;41010;53.252;5.786;2023-04-24T13:17:11;2.92;;;0.77;;
55114;SDS011;41010;53.252;5.786;2023-04-24T13:19:39;7.13;;;1.58;;
55114;SDS011;41010;53.252;5.786;2023-04-24T13:22:08;3.03;;;1.08;;
55114;SDS011;41010;53.252;5.786;2023-04-24T13:24:36;7.88;;;1.30;;
55114;SDS011;41010;53.252;5.786;2023-04-24T13:27:05;6.90;;;0.90;;
55114;SDS011;41010;53.252;5.786;2023-04-24T13:29:32;4.32;;;0.77;;
55114;SDS011;41010;53.252;5.786;2023-04-24T13:32:01;4.43;;;0.75;;
55114;SDS011;41010;53.252;5.786;2023-04-24T13:34:28;2.60;;;0.60;;
55114;SDS011;41010;53.252;5.786;2023-04-24T13:36:56;3.25;;;0.60;;
55114;SDS011;41010;53.252;5.786;2023-04-24T13:39:23;3.13;;;0.80;;
55114;SDS011;41010;53.252;5.786;2023-04-24T13:41:51;2.28;;;0.73;;
55114;SDS011;41010;53.252;5.786;2023-04-24T13:44:18;0.85;;;0.40;;
55114;SDS011;41010;53.252;5.786;2023-04-24T13:46:47;3.75;;;0.75;;
55114;SDS011;41010;53.252;5.786;2023-04-24T13:49:16;3.40;;;0.60;;
55114;SDS011;41010;53.252;5.786;2023-04-24T13:51:44;2.45;;;0.47;;
55114;SDS011;41010;53.252;5.786;2023-04-24T13:54:11;5.95;;;0.98;;
55114;SDS011;41010;53.252;5.786;2023-04-24T13:56:39;2.03;;;0.50;;
55114;SDS011;41010;53.252;5.786;2023-04-24T13:59:06;7.55;;;1.60;;
55114;SDS011;41010;53.252;5.786;2023-04-24T14:01:34;5.72;;;1.60;;
55114;SDS011;41010;53.252;5.786;2023-04-24T14:04:01;6.93;;;1.10;;
55114;SDS011;41010;53.252;5.786;2023-04-24T14:06:30;5.20;;;1.02;;
55114;SDS011;41010;53.252;5.786;2023-04-24T14:08:57;5.78;;;0.85;;
55114;SDS011;41010;53.252;5.786;2023-04-24T14:11:25;6.18;;;1.00;;
55114;SDS011;41010;53.252;5.786;2023-04-24T14:13:53;2.75;;;0.85;;
55114;SDS011;41010;53.252;5.786;2023-04-24T14:16:22;3.25;;;0.90;;
55114;SDS011;41010;53.252;5.786;2023-04-24T14:18:49;5.43;;;1.00;;
55114;SDS011;41010;53.252;5.786;2023-04-24T14:21:17;2.88;;;0.80;;
55114;SDS011;41010;53.252;5.786;2023-04-24T14:23:45;4.20;;;0.95;;
55114;SDS011;41010;53.252;5.786;2023-04-24T14:26:15;8.48;;;0.80;;
55114;SDS011;41010;53.252;5.786;2023-04-24T14:28:43;4.20;;;1.02;;
55114;SDS011;41010;53.252;5.786;2023-04-24T14:31:10;3.85;;;0.98;;
55114;SDS011;41010;53.252;5.786;2023-04-24T14:33:37;6.72;;;1.20;;
55114;SDS011;41010;53.252;5.786;2023-04-24T14:36:05;4.75;;;0.98;;
55114;SDS011;41010;53.252;5.786;2023-04-24T14:38:32;1.98;;;0.80;;
55114;SDS011;41010;53.252;5.786;2023-04-24T14:41:01;6.53;;;1.17;;
55114;SDS011;41010;53.252;5.786;2023-04-24T14:43:34;5.85;;;0.90;;
55114;SDS011;41010;53.252;5.786;2023-04-24T14:46:01;3.65;;;0.90;;
55114;SDS011;41010;53.252;5.786;2023-04-24T14:48:28;8.60;;;1.20;;
55114;SDS011;41010;53.252;5.786;2023-04-24T14:50:56;5.15;;;0.90;;
55114;SDS011;41010;53.252;5.786;2023-04-24T14:53:23;4.80;;;1.30;;
55114;SDS011;41010;53.252;5.786;2023-04-24T14:55:50;6.15;;;1.50;;
55114;SDS011;41010;53.252;5.786;2023-04-24T14:58:19;7.40;;;1.98;;
55114;SDS011;41010;53.252;5.786;2023-04-24T15:00:46;7.82;;;1.75;;